Time;durP1;ratioP1;P1;durP2;ratioP2;P2;SDS_P1;SDS_P2;PMS_P1;PMS_P2;Temp;Humidity;BMP_temperature;BMP_pressure;BME280_temperature;BME280_humidity;BME280_pressure;Samples;Min_cycle;Max_cycle;Signal;HPM_P1;HPM_P2
2022/01/09 00:00:18;;;;;;;;;;;3.30;99.90;;;;;;5132710;27;20321;-76
2022/01/09 00:02:43;;;;;;;;;;;3.30;99.90;;;;;;5132636;27;20379;-77
2022/01/09 00:05:09;;;;;;;;;;;3.30;99.90;;;;;;5133488;27;19914;-76
2022/01/09 00:07:35;;;;;;;;;;;3.30;99.90;;;;;;5132619;27;19911;-77
2022/01/09 00:10:01;;;;;;;;;;;3.30;99.90;;;;;;5133578;27;19990;-76
2022/01/09 00:12:27;;;;;;;;;;;3.30;99.90;;;;;;5132016;27;20429;-76
2022/01/09 00:14:52;;;;;;;;;;;3.30;99.90;;;;;;5131576;27;19916;-76
2022/01/09 00:17:18;;;;;;;;;;;3.30;99.90;;;;;;5113836;27;19952;-76
2022/01/09 00:19:44;;;;;;;;;;;3.30;99.90;;;;;;5133165;27;19954;-76
2022/01/09 00:22:09;;;;;;;;;;;3.30;99.90;;;;;;5133027;27;20268;-76
2022/01/09 00:24:35;;;;;;;;;;;3.30;99.90;;;;;;5113876;28;20477;-77
2022/01/09 00:27:01;;;;;;;;;;;3.30;99.90;;;;;;5132604;27;19908;-77
2022/01/09 00:29:26;;;;;;;;;;;3.30;99.90;;;;;;5113486;28;19907;-76
2022/01/09 00:31:52;;;;;;;;;;;3.30;99.90;;;;;;5119751;28;19918;-77
2022/01/09 00:34:17;;;;;;;;;;;3.30;99.90;;;;;;5141663;27;19912;-76
2022/01/09 00:36:43;;;;;;;;;;;3.20;99.90;;;;;;5141772;27;20364;-78
2022/01/09 00:39:08;;;;;;;;;;;3.20;99.90;;;;;;5138735;27;19907;-77
2022/01/09 00:41:34;;;;;;;;;;;3.20;99.90;;;;;;5132304;27;20407;-76
2022/01/09 00:44:00;;;;;;;;;;;3.20;99.90;;;;;;5132607;27;19918;-76
2022/01/09 00:46:25;;;;;;;;;;;3.20;99.90;;;;;;5132501;28;20344;-76
2022/01/09 00:48:51;;;;;;;;;;;3.20;99.90;;;;;;5133430;28;20360;-76
2022/01/09 00:51:16;;;;;;;;;;;3.20;99.90;;;;;;5132980;28;19960;-75
2022/01/09 00:53:42;;;;;;;;;;;3.20;99.90;;;;;;5114182;28;19943;-76
2022/01/09 00:56:08;;;;;;;;;;;3.10;99.90;;;;;;5133325;28;19998;-76
2022/01/09 00:58:33;;;;;;;;;;;3.20;99.90;;;;;;5132483;28;19912;-75
2022/01/09 01:00:59;;;;;;;;;;;3.20;99.90;;;;;;5133275;28;19908;-76
2022/01/09 01:03:25;;;;;;;;;;;3.20;99.90;;;;;;5132322;28;20052;-75
2022/01/09 01:05:50;;;;;;;;;;;3.20;99.90;;;;;;5133039;28;20300;-76
2022/01/09 01:08:16;;;;;;;;;;;3.30;99.90;;;;;;5132983;28;19947;-76
2022/01/09 01:10:41;;;;;;;;;;;3.20;99.90;;;;;;5132392;28;19907;-76
2022/01/09 01:13:07;;;;;;;;;;;3.30;99.90;;;;;;5132464;28;19907;-77
2022/01/09 01:15:33;;;;;;;;;;;3.30;99.90;;;;;;5132338;28;19907;-76
2022/01/09 01:17:58;;;;;;;;;;;3.30;99.90;;;;;;5133133;28;19912;-76
2022/01/09 01:20:24;;;;;;;;;;;3.30;99.90;;;;;;5132098;28;19960;-76
2022/01/09 01:22:51;;;;;;;;;;;3.30;99.90;;;;;;5133013;28;20017;-76
2022/01/09 01:25:17;;;;;;;;;;;3.30;99.90;;;;;;5132908;28;19916;-76
2022/01/09 01:27:43;;;;;;;;;;;3.30;99.90;;;;;;5134444;27;19907;-76
2022/01/09 01:30:09;;;;;;;;;;;3.30;99.90;;;;;;5136998;27;19998;-76
2022/01/09 01:32:34;;;;;;;;;;;3.30;99.90;;;;;;5136168;27;19907;-76
2022/01/09 01:35:00;;;;;;;;;;;3.30;99.90;;;;;;5137010;27;19908;-76
2022/01/09 01:37:25;;;;;;;;;;;3.30;99.90;;;;;;5135915;27;19973;-76
2022/01/09 01:39:51;;;;;;;;;;;3.20;99.90;;;;;;5136830;27;19960;-77
2022/01/09 01:42:17;;;;;;;;;;;3.20;99.90;;;;;;5136721;27;19915;-77
2022/01/09 01:44:44;;;;;;;;;;;3.20;99.90;;;;;;5136176;27;20370;-76
2022/01/09 01:47:10;;;;;;;;;;;3.20;99.90;;;;;;5136514;27;19907;-76
2022/01/09 01:49:36;;;;;;;;;;;3.20;99.90;;;;;;5135788;27;19911;-77
2022/01/09 01:52:01;;;;;;;;;;;3.20;99.90;;;;;;5136666;27;19914;-77
2022/01/09 01:54:27;;;;;;;;;;;3.20;99.90;;;;;;5135755;27;19907;-76
2022/01/09 01:56:53;;;;;;;;;;;3.20;99.90;;;;;;5136393;27;19907;-77
2022/01/09 01:59:19;;;;;;;;;;;3.20;99.90;;;;;;5136442;27;19952;-76
2022/01/09 02:01:44;;;;;;;;;;;3.20;99.90;;;;;;5135518;27;19916;-76
2022/01/09 02:04:10;;;;;;;;;;;3.20;99.90;;;;;;5136126;27;19972;-77
2022/01/09 02:06:36;;;;;;;;;;;3.30;99.90;;;;;;5135469;27;19926;-76
2022/01/09 02:09:04;;;;;;;;;;;3.30;99.90;;;;;;5135231;27;21398;-76
2022/01/09 02:11:30;;;;;;;;;;;3.30;99.90;;;;;;5135114;27;19908;-76
2022/01/09 02:13:55;;;;;;;;;;;3.30;99.90;;;;;;5135674;27;20093;-74
2022/01/09 02:16:22;;;;;;;;;;;3.30;99.90;;;;;;5136018;27;20326;-76
2022/01/09 02:18:48;;;;;;;;;;;3.30;99.90;;;;;;5135589;27;19957;-75
2022/01/09 02:21:14;;;;;;;;;;;3.40;99.90;;;;;;5135752;27;20453;-75
2022/01/09 02:23:41;;;;;;;;;;;3.40;99.90;;;;;;5135190;27;19912;-75
2022/01/09 02:26:07;;;;;;;;;;;3.40;99.90;;;;;;5138075;27;19955;-75
2022/01/09 02:28:33;;;;;;;;;;;3.40;99.90;;;;;;5135118;27;20292;-75
2022/01/09 02:30:59;;;;;;;;;;;3.40;99.90;;;;;;5135405;27;19968;-75
2022/01/09 02:33:24;;;;;;;;;;;3.40;99.90;;;;;;5135089;27;19956;-74
2022/01/09 02:35:51;;;;;;;;;;;3.40;99.90;;;;;;5134882;27;19950;-75
2022/01/09 02:38:17;;;;;;;;;;;3.40;99.90;;;;;;5135039;27;19911;-76
2022/01/09 02:40:43;;;;;;;;;;;3.40;99.90;;;;;;5134662;27;19972;-74
2022/01/09 02:43:08;;;;;;;;;;;3.40;99.90;;;;;;5135287;27;19912;-76
2022/01/09 02:45:34;;;;;;;;;;;3.40;99.90;;;;;;5134454;27;19918;-75
2022/01/09 02:48:02;;;;;;;;;;;3.30;99.90;;;;;;5135515;27;19908;-76
2022/01/09 02:50:33;;;;;;;;;;;3.30;99.90;;;;;;5134259;27;20044;-75
2022/01/09 02:53:01;;;;;;;;;;;3.30;99.90;;;;;;5135729;27;20317;-76
2022/01/09 02:55:28;;;;;;;;;;;3.30;99.90;;;;;;5116359;27;19915;-75
2022/01/09 02:57:54;;;;;;;;;;;3.30;99.90;;;;;;5116509;27;20029;-76
2022/01/09 03:00:21;;;;;;;;;;;3.30;99.90;;;;;;5135011;27;20009;-77
2022/01/09 03:02:47;;;;;;;;;;;3.30;99.90;;;;;;5134072;27;20153;-76
2022/01/09 03:05:12;;;;;;;;;;;3.30;99.90;;;;;;5135259;27;20409;-76
2022/01/09 03:07:39;;;;;;;;;;;3.30;99.90;;;;;;5134077;27;19914;-75
2022/01/09 03:10:05;;;;;;;;;;;3.30;99.90;;;;;;5135431;27;19908;-76
2022/01/09 03:12:31;;;;;;;;;;;3.30;99.90;;;;;;5134275;27;20006;-75
2022/01/09 03:14:56;;;;;;;;;;;3.30;99.90;;;;;;5116388;27;20020;-75
2022/01/09 03:17:22;;;;;;;;;;;3.30;99.90;;;;;;5134699;27;20370;-76
2022/01/09 03:19:47;;;;;;;;;;;3.30;99.90;;;;;;5134140;27;20576;-75
2022/01/09 03:22:13;;;;;;;;;;;3.30;99.90;;;;;;5134812;27;19911;-76
2022/01/09 03:24:38;;;;;;;;;;;3.30;99.90;;;;;;5134317;27;19964;-76
2022/01/09 03:27:04;;;;;;;;;;;3.30;99.90;;;;;;5134736;27;19930;-76
2022/01/09 03:29:30;;;;;;;;;;;3.30;99.90;;;;;;5133947;27;19908;-75
2022/01/09 03:31:56;;;;;;;;;;;3.30;99.90;;;;;;5134627;27;19918;-76
2022/01/09 03:34:21;;;;;;;;;;;3.30;99.90;;;;;;5134430;27;20369;-76
2022/01/09 03:36:47;;;;;;;;;;;3.30;99.90;;;;;;5133734;27;19988;-75
2022/01/09 03:39:13;;;;;;;;;;;3.30;99.90;;;;;;5134852;27;20360;-75
2022/01/09 03:41:38;;;;;;;;;;;3.30;99.90;;;;;;5133294;27;19911;-75
2022/01/09 03:44:04;;;;;;;;;;;3.20;99.90;;;;;;5134362;27;19916;-75
2022/01/09 03:46:30;;;;;;;;;;;3.30;99.90;;;;;;5133807;27;19911;-75
2022/01/09 03:48:55;;;;;;;;;;;3.30;99.90;;;;;;5133675;27;20001;-75
2022/01/09 03:51:24;;;;;;;;;;;3.30;99.90;;;;;;5115332;27;20356;-75
2022/01/09 03:53:51;;;;;;;;;;;3.30;99.90;;;;;;5133441;27;20344;-76
2022/01/09 03:56:16;;;;;;;;;;;3.40;99.90;;;;;;5136712;27;20364;-76
2022/01/09 03:58:42;;;;;;;;;;;3.40;99.90;;;;;;5134607;27;20006;-75
2022/01/09 04:01:08;;;;;;;;;;;3.40;99.90;;;;;;5134199;27;19907;-75
2022/01/09 04:03:34;;;;;;;;;;;3.40;99.90;;;;;;5132486;27;19919;-75
2022/01/09 04:06:01;;;;;;;;;;;3.40;99.90;;;;;;5134148;27;19915;-75
2022/01/09 04:08:27;;;;;;;;;;;3.40;99.90;;;;;;5133911;27;19942;-75
2022/01/09 04:10:52;;;;;;;;;;;3.40;99.90;;;;;;5132942;27;19907;-75
2022/01/09 04:13:18;;;;;;;;;;;3.50;99.90;;;;;;5134159;27;20432;-75
2022/01/09 04:15:47;;;;;;;;;;;3.50;99.90;;;;;;5132996;27;19998;-75
2022/01/09 04:18:14;;;;;;;;;;;3.50;99.90;;;;;;5133860;27;19908;-76
2022/01/09 04:20:39;;;;;;;;;;;3.50;99.90;;;;;;5132969;27;19907;-74
2022/01/09 04:23:05;;;;;;;;;;;3.50;99.90;;;;;;5133879;27;19916;-75
2022/01/09 04:25:30;;;;;;;;;;;3.50;99.90;;;;;;5133273;27;19914;-75
2022/01/09 04:27:56;;;;;;;;;;;3.50;99.90;;;;;;5132961;27;19918;-76
2022/01/09 04:30:22;;;;;;;;;;;3.50;99.90;;;;;;5133753;27;19938;-76
2022/01/09 04:32:47;;;;;;;;;;;3.50;99.90;;;;;;5132732;27;19908;-76
2022/01/09 04:35:13;;;;;;;;;;;3.50;99.90;;;;;;5133496;27;19915;-76
2022/01/09 04:37:39;;;;;;;;;;;3.50;99.90;;;;;;5132675;27;19907;-75
2022/01/09 04:40:06;;;;;;;;;;;3.40;99.90;;;;;;5133779;27;20268;-76
2022/01/09 04:42:40;;;;;;;;;;;3.50;99.90;;;;;;5133173;27;19915;-75
2022/01/09 04:45:07;;;;;;;;;;;3.50;99.90;;;;;;5133576;27;19950;-76
2022/01/09 04:47:33;;;;;;;;;;;3.50;99.90;;;;;;5132951;28;20280;-75
2022/01/09 04:49:59;;;;;;;;;;;3.60;99.90;;;;;;5132832;28;19914;-76
2022/01/09 04:52:30;;;;;;;;;;;3.60;99.90;;;;;;5133170;28;19934;-77
2022/01/09 04:54:56;;;;;;;;;;;3.60;99.90;;;;;;5132593;28;20026;-76
2022/01/09 04:57:21;;;;;;;;;;;3.60;99.90;;;;;;5115014;28;20041;-76
2022/01/09 04:59:47;;;;;;;;;;;3.60;99.90;;;;;;5114432;28;19915;-76
2022/01/09 05:02:12;;;;;;;;;;;3.70;99.90;;;;;;5136342;27;20427;-76
2022/01/09 05:04:38;;;;;;;;;;;3.60;99.90;;;;;;5136484;27;19919;-75
2022/01/09 05:07:03;;;;;;;;;;;3.70;99.90;;;;;;5137220;27;19997;-76
2022/01/09 05:09:29;;;;;;;;;;;3.70;99.90;;;;;;5137457;27;20349;-76
2022/01/09 05:11:55;;;;;;;;;;;3.80;99.90;;;;;;5136337;27;19911;-76
2022/01/09 05:14:20;;;;;;;;;;;3.90;99.90;;;;;;5137179;27;19914;-76
2022/01/09 05:16:46;;;;;;;;;;;4.00;99.90;;;;;;5136004;27;20356;-75
2022/01/09 05:19:20;;;;;;;;;;;4.00;99.90;;;;;;5137296;27;19907;-76
2022/01/09 05:21:46;;;;;;;;;;;4.10;99.90;;;;;;5136453;27;19911;-75
2022/01/09 05:24:12;;;;;;;;;;;4.10;99.90;;;;;;5137168;27;19918;-76
2022/01/09 05:26:37;;;;;;;;;;;4.20;99.90;;;;;;5136462;27;19908;-74
2022/01/09 05:29:03;;;;;;;;;;;4.20;99.90;;;;;;5136808;27;20276;-75
2022/01/09 05:31:29;;;;;;;;;;;4.20;99.90;;;;;;5137025;27;19953;-75
2022/01/09 05:33:55;;;;;;;;;;;4.20;99.90;;;;;;5136226;27;19907;-75
2022/01/09 05:36:21;;;;;;;;;;;4.20;99.90;;;;;;5136994;27;19907;-75
2022/01/09 05:38:46;;;;;;;;;;;4.20;99.90;;;;;;5135831;27;19963;-75
2022/01/09 05:41:12;;;;;;;;;;;4.20;99.90;;;;;;5136888;27;20383;-75
2022/01/09 05:43:39;;;;;;;;;;;4.30;99.90;;;;;;5135967;27;19958;-75
2022/01/09 05:46:05;;;;;;;;;;;4.30;99.90;;;;;;5136663;27;19990;-75
2022/01/09 05:48:31;;;;;;;;;;;4.30;99.90;;;;;;5136776;27;19991;-76
2022/01/09 05:50:56;;;;;;;;;;;4.30;99.90;;;;;;5135542;27;19907;-75
2022/01/09 05:53:22;;;;;;;;;;;4.30;99.90;;;;;;5136592;27;19907;-76
2022/01/09 05:55:48;;;;;;;;;;;4.30;99.90;;;;;;5135773;27;20388;-75
2022/01/09 05:58:13;;;;;;;;;;;4.30;99.90;;;;;;5136424;27;19907;-75
2022/01/09 06:00:39;;;;;;;;;;;4.30;99.90;;;;;;5135616;27;19946;-74
2022/01/09 06:03:04;;;;;;;;;;;4.30;99.90;;;;;;5117248;27;19964;-76
2022/01/09 06:05:30;;;;;;;;;;;4.30;99.90;;;;;;5136306;27;19911;-76
2022/01/09 06:07:56;;;;;;;;;;;4.30;99.90;;;;;;5135544;27;19950;-75
2022/01/09 06:10:21;;;;;;;;;;;4.30;99.90;;;;;;5136091;27;19912;-76
2022/01/09 06:12:47;;;;;;;;;;;4.40;99.90;;;;;;5134576;27;19907;-75
2022/01/09 06:15:12;;;;;;;;;;;4.40;99.90;;;;;;5117752;27;20374;-76
2022/01/09 06:17:39;;;;;;;;;;;4.50;99.90;;;;;;5136120;27;19907;-75
2022/01/09 06:20:05;;;;;;;;;;;4.40;99.90;;;;;;5135743;27;19951;-76
2022/01/09 06:22:31;;;;;;;;;;;4.40;99.90;;;;;;5135771;27;19919;-76
2022/01/09 06:24:57;;;;;;;;;;;4.40;99.90;;;;;;5134948;27;19911;-76
2022/01/09 06:27:23;;;;;;;;;;;4.50;99.90;;;;;;5136155;27;19907;-76
2022/01/09 06:29:48;;;;;;;;;;;4.50;99.90;;;;;;5135143;27;19908;-77
2022/01/09 06:32:14;;;;;;;;;;;4.40;99.90;;;;;;5135637;27;19908;-76
2022/01/09 06:34:41;;;;;;;;;;;4.40;99.90;;;;;;5135308;27;20356;-75
2022/01/09 06:37:07;;;;;;;;;;;4.40;99.90;;;;;;5135339;27;19918;-75
2022/01/09 06:39:32;;;;;;;;;;;4.40;99.90;;;;;;5135740;27;19907;-76
2022/01/09 06:41:58;;;;;;;;;;;4.30;99.90;;;;;;5134540;27;19964;-76
2022/01/09 06:44:24;;;;;;;;;;;4.30;99.90;;;;;;5135385;27;19951;-76
2022/01/09 06:46:49;;;;;;;;;;;4.30;99.90;;;;;;5134837;27;20355;-74
2022/01/09 06:49:15;;;;;;;;;;;4.30;99.90;;;;;;5135077;27;19908;-76
2022/01/09 06:51:40;;;;;;;;;;;4.30;99.90;;;;;;5135150;27;19907;-75
2022/01/09 06:54:06;;;;;;;;;;;4.30;99.90;;;;;;5116413;27;19915;-76
2022/01/09 06:56:32;;;;;;;;;;;4.40;99.90;;;;;;5117029;27;20260;-76
2022/01/09 06:58:57;;;;;;;;;;;4.40;99.90;;;;;;5115967;27;19914;-75
2022/01/09 07:01:23;;;;;;;;;;;4.40;99.90;;;;;;5134981;27;19911;-76
2022/01/09 07:03:48;;;;;;;;;;;4.40;99.90;;;;;;5134362;27;20280;-75
2022/01/09 07:06:14;;;;;;;;;;;4.50;99.90;;;;;;5135341;27;19908;-76
2022/01/09 07:08:39;;;;;;;;;;;4.50;99.90;;;;;;5135450;27;20389;-76
2022/01/09 07:11:05;;;;;;;;;;;4.50;99.90;;;;;;5134291;27;19997;-75
2022/01/09 07:13:31;;;;;;;;;;;4.40;99.90;;;;;;5135108;27;19914;-76
2022/01/09 07:15:57;;;;;;;;;;;4.40;99.90;;;;;;5133969;27;19907;-76
2022/01/09 07:18:23;;;;;;;;;;;4.50;99.90;;;;;;5134624;27;20256;-75
2022/01/09 07:20:49;;;;;;;;;;;4.40;99.90;;;;;;5134128;27;19915;-75
2022/01/09 07:23:14;;;;;;;;;;;4.40;99.90;;;;;;5140550;27;19936;-74
2022/01/09 07:25:40;;;;;;;;;;;4.40;99.90;;;;;;5120493;27;19914;-76
2022/01/09 07:28:05;;;;;;;;;;;4.40;99.90;;;;;;5134040;27;19908;-76
2022/01/09 07:30:31;;;;;;;;;;;4.40;99.90;;;;;;5134768;27;20000;-76
2022/01/09 07:32:57;;;;;;;;;;;4.40;99.90;;;;;;5134189;27;20379;-76
2022/01/09 07:35:23;;;;;;;;;;;4.30;99.90;;;;;;5134489;27;19915;-76
2022/01/09 07:37:48;;;;;;;;;;;4.30;99.90;;;;;;5133773;27;19915;-75
2022/01/09 07:40:14;;;;;;;;;;;4.30;99.90;;;;;;5116195;27;19908;-76
2022/01/09 07:42:40;;;;;;;;;;;4.30;99.90;;;;;;5134385;27;19945;-77
2022/01/09 07:45:08;;;;;;;;;;;4.30;99.90;;;;;;5133216;27;20130;-76
2022/01/09 07:47:37;;;;;;;;;;;4.30;99.90;;;;;;5134179;27;19915;-77
2022/01/09 07:50:06;;;;;;;;;;;4.30;99.90;;;;;;5133100;27;19914;-77
2022/01/09 07:52:35;;;;;;;;;;;4.30;99.90;;;;;;5134221;27;19954;-77
2022/01/09 07:55:01;;;;;;;;;;;4.30;99.90;;;;;;5133370;27;19908;-77
2022/01/09 07:57:27;;;;;;;;;;;4.30;99.90;;;;;;5134251;27;20328;-77
2022/01/09 07:59:52;;;;;;;;;;;4.30;99.90;;;;;;5144293;27;19911;-77
2022/01/09 08:02:18;;;;;;;;;;;4.30;99.90;;;;;;5144995;27;20365;-77
2022/01/09 08:04:43;;;;;;;;;;;4.40;99.90;;;;;;5151118;27;19980;-77
2022/01/09 08:07:09;;;;;;;;;;;4.40;99.90;;;;;;5153946;27;19907;-77
2022/01/09 08:09:35;;;;;;;;;;;4.40;99.90;;;;;;5154521;27;19967;-77
2022/01/09 08:12:00;;;;;;;;;;;4.40;99.90;;;;;;5153563;27;20424;-77
2022/01/09 08:14:26;;;;;;;;;;;4.50;99.90;;;;;;5135790;27;19918;-77
2022/01/09 08:16:51;;;;;;;;;;;4.40;99.90;;;;;;5154597;27;19907;-76
2022/01/09 08:19:17;;;;;;;;;;;4.40;99.90;;;;;;5153104;27;20375;-77
2022/01/09 08:21:42;;;;;;;;;;;4.40;99.90;;;;;;5138722;27;19915;-76
2022/01/09 08:24:10;;;;;;;;;;;4.40;99.90;;;;;;5141618;27;19911;-77
2022/01/09 08:26:35;;;;;;;;;;;4.40;99.90;;;;;;5145233;27;19946;-77
2022/01/09 08:29:01;;;;;;;;;;;4.30;99.90;;;;;;5140360;27;19943;-76
2022/01/09 08:31:27;;;;;;;;;;;4.30;99.90;;;;;;5133065;27;19919;-77
2022/01/09 08:33:52;;;;;;;;;;;4.30;99.90;;;;;;5123610;27;19914;-76
2022/01/09 08:36:18;;;;;;;;;;;4.30;99.90;;;;;;5154024;27;19911;-77
2022/01/09 08:38:44;;;;;;;;;;;4.30;99.90;;;;;;5154125;27;19911;-77
2022/01/09 08:41:09;;;;;;;;;;;4.30;99.90;;;;;;5153099;27;19908;-76
2022/01/09 08:43:36;;;;;;;;;;;4.20;99.90;;;;;;5154202;27;19936;-77
2022/01/09 08:46:02;;;;;;;;;;;4.20;99.90;;;;;;5153111;27;20344;-77
2022/01/09 08:48:27;;;;;;;;;;;4.20;99.90;;;;;;5147610;27;19943;-77
2022/01/09 08:50:53;;;;;;;;;;;4.20;99.90;;;;;;5142592;27;19911;-76
2022/01/09 08:53:18;;;;;;;;;;;4.20;99.90;;;;;;5144070;27;19976;-77
2022/01/09 08:55:44;;;;;;;;;;;4.20;99.90;;;;;;5151013;27;20244;-77
2022/01/09 08:58:10;;;;;;;;;;;4.30;99.90;;;;;;5153366;27;20095;-77
2022/01/09 09:00:35;;;;;;;;;;;4.30;99.90;;;;;;5149286;27;19907;-77
2022/01/09 09:03:01;;;;;;;;;;;4.30;99.90;;;;;;5142833;27;20347;-76
2022/01/09 09:05:26;;;;;;;;;;;4.30;99.90;;;;;;5138490;27;19915;-77
2022/01/09 09:07:52;;;;;;;;;;;4.40;99.90;;;;;;5132677;28;19911;-76
2022/01/09 09:10:18;;;;;;;;;;;4.40;99.90;;;;;;5133171;28;19907;-76
2022/01/09 09:12:43;;;;;;;;;;;4.40;99.90;;;;;;5133226;28;19918;-76
2022/01/09 09:15:09;;;;;;;;;;;4.40;99.90;;;;;;5113933;28;20707;-76
2022/01/09 09:17:35;;;;;;;;;;;4.40;99.90;;;;;;5114695;28;20344;-76
2022/01/09 09:20:01;;;;;;;;;;;4.40;99.90;;;;;;5132136;28;19908;-76
2022/01/09 09:22:26;;;;;;;;;;;4.40;99.90;;;;;;5133336;28;19916;-76
2022/01/09 09:24:52;;;;;;;;;;;4.50;99.90;;;;;;5132566;28;19980;-76
2022/01/09 09:27:19;;;;;;;;;;;4.50;99.90;;;;;;5132760;28;19914;-74
2022/01/09 09:29:44;;;;;;;;;;;4.50;99.90;;;;;;5133395;28;19911;-76
2022/01/09 09:32:10;;;;;;;;;;;4.50;99.90;;;;;;5131881;28;19968;-76
2022/01/09 09:34:38;;;;;;;;;;;4.50;99.90;;;;;;5132730;27;19954;-76
2022/01/09 09:37:04;;;;;;;;;;;4.50;99.90;;;;;;5131940;27;19911;-75
2022/01/09 09:39:29;;;;;;;;;;;4.50;99.90;;;;;;5132725;28;20379;-77
2022/01/09 09:41:55;;;;;;;;;;;4.50;99.90;;;;;;5131987;28;19987;-76
2022/01/09 09:44:21;;;;;;;;;;;4.60;99.90;;;;;;5140297;28;19912;-76
2022/01/09 09:46:50;;;;;;;;;;;4.60;99.90;;;;;;5144291;27;20341;-76
2022/01/09 09:49:16;;;;;;;;;;;4.70;99.90;;;;;;5136908;27;20809;-75
2022/01/09 09:51:42;;;;;;;;;;;4.70;99.90;;;;;;5136994;27;19953;-76
2022/01/09 09:54:08;;;;;;;;;;;4.70;99.90;;;;;;5135813;27;19907;-76
2022/01/09 09:56:33;;;;;;;;;;;4.80;99.90;;;;;;5136328;27;19907;-76
2022/01/09 09:58:59;;;;;;;;;;;4.90;99.90;;;;;;5135604;27;20007;-76
2022/01/09 10:01:35;;;;;;;;;;;4.90;99.90;;;;;;5136403;27;19907;-76
2022/01/09 10:04:02;;;;;;;;;;;4.90;99.90;;;;;;5135704;27;19926;-77
2022/01/09 10:06:38;;;;;;;;;;;5.00;99.90;;;;;;5136260;27;20015;-78
2022/01/09 10:09:13;;;;;;;;;;;5.00;99.90;;;;;;5135811;27;19914;-74
2022/01/09 10:11:42;;;;;;;;;;;5.10;99.90;;;;;;5135863;27;19908;-75
2022/01/09 10:14:15;;;;;;;;;;;5.10;99.90;;;;;;5135352;27;20318;-76
2022/01/09 10:16:41;;;;;;;;;;;5.10;99.90;;;;;;5117579;27;20296;-75
2022/01/09 10:19:06;;;;;;;;;;;5.10;99.90;;;;;;5134913;27;19919;-75
2022/01/09 10:21:32;;;;;;;;;;;5.10;99.90;;;;;;5117480;27;19908;-76
2022/01/09 10:24:08;;;;;;;;;;;5.10;99.90;;;;;;5117004;27;19908;-74
2022/01/09 10:26:38;;;;;;;;;;;5.20;99.90;;;;;;5135428;27;19907;-75
2022/01/09 10:29:04;;;;;;;;;;;5.10;99.90;;;;;;5134412;27;20356;-75
2022/01/09 10:31:30;;;;;;;;;;;5.20;99.90;;;;;;5135108;27;20313;-77
2022/01/09 10:34:03;;;;;;;;;;;5.20;99.90;;;;;;5134735;27;19912;-75
2022/01/09 10:36:33;;;;;;;;;;;5.20;99.90;;;;;;5135245;27;20326;-76
2022/01/09 10:39:05;;;;;;;;;;;5.20;99.90;;;;;;5134458;27;20268;-76
2022/01/09 10:42:03;;;;;;;;;;;5.10;99.90;;;;;;5134954;27;20348;-77
2022/01/09 10:44:31;;;;;;;;;;;5.10;99.90;;;;;;5088890;27;19908;-78
2022/01/09 10:46:58;;;;;;;;;;;5.10;99.90;;;;;;5134553;27;19911;-77
2022/01/09 10:49:34;;;;;;;;;;;5.10;99.90;;;;;;5150981;27;19912;-78
2022/01/09 10:52:15;;;;;;;;;;;5.10;99.90;;;;;;5154395;27;19908;-76
2022/01/09 10:54:42;;;;;;;;;;;5.10;99.90;;;;;;5155488;27;19966;-77
2022/01/09 10:57:17;;;;;;;;;;;5.10;99.90;;;;;;5154651;27;20028;-76
2022/01/09 10:59:43;;;;;;;;;;;5.20;99.90;;;;;;5137010;27;19911;-77
2022/01/09 11:02:10;;;;;;;;;;;5.40;99.90;;;;;;5154572;27;19915;-76
2022/01/09 11:04:36;;;;;;;;;;;5.50;99.90;;;;;;5154629;27;20368;-77
2022/01/09 11:07:02;;;;;;;;;;;5.50;99.90;;;;;;5154502;27;19967;-77
2022/01/09 11:09:30;;;;;;;;;;;5.70;99.90;;;;;;5155225;27;19911;-78
2022/01/09 11:11:56;;;;;;;;;;;5.70;99.90;;;;;;5155482;27;20301;-76
2022/01/09 11:14:23;;;;;;;;;;;5.70;99.90;;;;;;5154456;27;19936;-77
2022/01/09 11:16:52;;;;;;;;;;;5.70;99.90;;;;;;5125995;27;20316;-77
2022/01/09 11:19:18;;;;;;;;;;;5.70;99.90;;;;;;5142334;27;19978;-77
2022/01/09 11:21:45;;;;;;;;;;;5.80;99.90;;;;;;5142196;27;19969;-76
2022/01/09 11:24:10;;;;;;;;;;;5.80;99.90;;;;;;5149469;27;20383;-77
2022/01/09 11:26:45;;;;;;;;;;;5.90;99.90;;;;;;5154553;27;19911;-76
2022/01/09 11:29:13;;;;;;;;;;;6.00;99.90;;;;;;5153806;27;19907;-76
2022/01/09 11:31:43;;;;;;;;;;;5.90;99.90;;;;;;5154365;27;19907;-76
2022/01/09 11:34:35;;;;;;;;;;;6.00;99.90;;;;;;5148623;27;19915;-77
2022/01/09 11:37:21;;;;;;;;;;;6.00;99.90;;;;;;5139646;27;19986;-76
2022/01/09 11:39:46;;;;;;;;;;;6.00;99.90;;;;;;5151760;27;20454;-77
2022/01/09 11:42:13;;;;;;;;;;;6.10;99.90;;;;;;5114220;27;20006;-77
2022/01/09 11:44:51;;;;;;;;;;;6.20;99.90;;;;;;5133599;27;19907;-76
2022/01/09 11:47:17;;;;;;;;;;;6.20;99.90;;;;;;5132747;27;19916;-78
2022/01/09 11:49:49;;;;;;;;;;;6.30;99.90;;;;;;5133149;27;19907;-76
2022/01/09 11:52:15;;;;;;;;;;;6.30;99.90;;;;;;5132843;27;19914;-78
2022/01/09 11:55:06;;;;;;;;;;;6.30;99.90;;;;;;5133314;27;20289;-77
2022/01/09 11:57:44;;;;;;;;;;;6.20;99.90;;;;;;5129263;27;19949;-78
2022/01/09 12:00:29;;;;;;;;;;;6.30;99.90;;;;;;5132422;27;19911;-77
2022/01/09 12:02:56;;;;;;;;;;;6.40;99.90;;;;;;5132632;27;20269;-77
2022/01/09 12:05:21;;;;;;;;;;;6.40;99.90;;;;;;5132869;27;19907;-77
2022/01/09 12:07:48;;;;;;;;;;;6.50;99.90;;;;;;5133744;27;20002;-77
2022/01/09 12:10:16;;;;;;;;;;;6.60;99.90;;;;;;5132203;27;19908;-77
2022/01/09 12:12:42;;;;;;;;;;;6.60;99.90;;;;;;5133045;27;19960;-76
2022/01/09 12:15:09;;;;;;;;;;;6.70;99.90;;;;;;5132485;27;20006;-76
2022/01/09 12:17:39;;;;;;;;;;;6.70;99.90;;;;;;5133132;27;19911;-76
2022/01/09 12:20:14;;;;;;;;;;;6.70;99.90;;;;;;5132153;27;19907;-76
2022/01/09 12:25:10;;;;;;;;;;;6.70;99.90;;;;;;5132184;27;19918;-76
2022/01/09 12:27:51;;;;;;;;;;;6.70;99.90;;;;;;5132950;27;19911;-76
2022/01/09 12:30:41;;;;;;;;;;;6.70;99.90;;;;;;5132181;27;19915;-76
2022/01/09 12:33:15;;;;;;;;;;;6.70;99.90;;;;;;5132263;27;20374;-77
2022/01/09 12:35:45;;;;;;;;;;;6.70;99.90;;;;;;5132765;27;19907;-76
2022/01/09 12:38:15;;;;;;;;;;;6.80;99.90;;;;;;5132024;27;19939;-77
2022/01/09 12:40:41;;;;;;;;;;;6.80;99.90;;;;;;5132790;27;19908;-77
2022/01/09 12:43:07;;;;;;;;;;;6.90;99.90;;;;;;5131748;27;19923;-77
2022/01/09 12:45:37;;;;;;;;;;;6.90;99.90;;;;;;5132721;27;19911;-77
2022/01/09 12:48:04;;;;;;;;;;;6.90;99.90;;;;;;5131527;27;20348;-77
2022/01/09 12:50:30;;;;;;;;;;;7.00;99.90;;;;;;5133044;28;19911;-77
2022/01/09 12:53:14;;;;;;;;;;;7.00;99.90;;;;;;5132647;28;20268;-77
2022/01/09 12:55:52;;;;;;;;;;;7.00;99.90;;;;;;5132622;28;20271;-77
2022/01/09 12:58:22;;;;;;;;;;;7.00;99.90;;;;;;5132245;28;19990;-77
2022/01/09 13:00:47;;;;;;;;;;;7.10;99.90;;;;;;5114426;28;19915;-77
2022/01/09 13:03:16;;;;;;;;;;;7.10;99.90;;;;;;5131319;28;19920;-77
2022/01/09 13:05:50;;;;;;;;;;;7.10;99.90;;;;;;5132717;28;19908;-78
2022/01/09 13:08:17;;;;;;;;;;;7.20;99.90;;;;;;5131734;28;19911;-77
2022/01/09 13:10:43;;;;;;;;;;;7.20;99.90;;;;;;5132490;28;19907;-77
2022/01/09 13:13:10;;;;;;;;;;;7.30;99.90;;;;;;5144840;27;20324;-76
2022/01/09 13:15:37;;;;;;;;;;;7.20;99.90;;;;;;5142222;27;19915;-78
2022/01/09 13:18:04;;;;;;;;;;;7.30;99.90;;;;;;5133308;28;19907;-77
2022/01/09 13:20:29;;;;;;;;;;;7.30;99.90;;;;;;5141525;28;19947;-77
2022/01/09 13:23:05;;;;;;;;;;;7.30;99.90;;;;;;5139183;27;19964;-76
2022/01/09 13:25:41;;;;;;;;;;;7.40;99.90;;;;;;5139626;27;20237;-78
2022/01/09 13:28:06;;;;;;;;;;;7.40;99.90;;;;;;5117450;27;20018;-77
2022/01/09 13:30:32;;;;;;;;;;;7.40;99.90;;;;;;5137211;27;20394;-77
2022/01/09 13:33:02;;;;;;;;;;;7.40;99.90;;;;;;5136703;27;19907;-77
2022/01/09 13:35:28;;;;;;;;;;;7.40;99.90;;;;;;5136680;27;19908;-77
2022/01/09 13:37:57;;;;;;;;;;;7.40;99.90;;;;;;5136762;27;20389;-77
2022/01/09 13:40:23;;;;;;;;;;;7.50;99.90;;;;;;5135825;27;19903;-76
2022/01/09 13:42:48;;;;;;;;;;;7.60;99.90;;;;;;5136343;27;20027;-77
2022/01/09 13:45:18;;;;;;;;;;;7.60;99.90;;;;;;5135709;27;19911;-78
2022/01/09 13:47:47;;;;;;;;;;;7.70;99.90;;;;;;5136228;27;20055;-78
2022/01/09 13:50:15;;;;;;;;;;;7.70;99.90;;;;;;5135653;27;19908;-76
2022/01/09 13:52:40;;;;;;;;;;;7.80;99.90;;;;;;5136088;27;20018;-78
2022/01/09 13:55:11;;;;;;;;;;;7.80;99.90;;;;;;5135284;27;19966;-75
2022/01/09 13:58:03;;;;;;;;;;;7.90;99.90;;;;;;5118238;27;19912;-76
2022/01/09 14:00:30;;;;;;;;;;;7.90;99.90;;;;;;5135485;27;19999;-76
2022/01/09 14:02:57;;;;;;;;;;;7.90;99.90;;;;;;5135940;27;19980;-76
2022/01/09 14:05:24;;;;;;;;;;;8.00;99.90;;;;;;5135418;27;19911;-76
2022/01/09 14:07:51;;;;;;;;;;;7.90;99.90;;;;;;5136064;27;20323;-77
2022/01/09 14:10:17;;;;;;;;;;;7.90;99.90;;;;;;5135306;27;19911;-76
2022/01/09 14:12:44;;;;;;;;;;;8.00;99.90;;;;;;5136423;27;19908;-77
2022/01/09 14:15:11;;;;;;;;;;;8.00;99.90;;;;;;5135634;27;20384;-75
2022/01/09 14:17:37;;;;;;;;;;;7.90;99.90;;;;;;5135917;27;19912;-77
2022/01/09 14:20:17;;;;;;;;;;;8.00;99.90;;;;;;5135808;27;19918;-77
2022/01/09 14:22:44;;;;;;;;;;;8.00;99.90;;;;;;5135652;27;20317;-77
2022/01/09 14:25:11;;;;;;;;;;;8.00;99.90;;;;;;5134090;27;19915;-76
2022/01/09 14:27:44;;;;;;;;;;;8.00;99.90;;;;;;5135512;27;19911;-76
2022/01/09 14:30:27;;;;;;;;;;;8.00;99.90;;;;;;5134759;27;20280;-75
2022/01/09 14:33:12;;;;;;;;;;;8.00;99.90;;;;;;5135439;27;19960;-77